sensor_id;sensor_type;location;lat;lon;timestamp;pressure;altitude;pressure_sealevel;temperature;humidity
21817;BME280;13247;47.504;7.382;2023-05-24T00:01:50;97471.31;;;16.40;100.00
21817;BME280;13247;47.504;7.382;2023-05-24T00:04:35;97480.66;;;15.96;100.00
21817;BME280;13247;47.504;7.382;2023-05-24T00:07:20;97476.88;;;15.66;100.00
21817;BME280;13247;47.504;7.382;2023-05-24T00:10:05;97477.72;;;16.19;100.00
21817;BME280;13247;47.504;7.382;2023-05-24T00:12:50;97483.28;;;15.79;100.00
21817;BME280;13247;47.504;7.382;2023-05-24T00:15:35;97475.19;;;15.99;100.00
21817;BME280;13247;47.504;7.382;2023-05-24T00:18:19;97476.75;;;16.37;100.00
21817;BME280;13247;47.504;7.382;2023-05-24T00:21:04;97476.44;;;16.26;100.00
21817;BME280;13247;47.504;7.382;2023-05-24T00:23:49;97478.00;;;15.79;100.00
21817;BME280;13247;47.504;7.382;2023-05-24T00:26:35;97469.88;;;15.65;100.00
21817;BME280;13247;47.504;7.382;2023-05-24T00:29:20;97474.63;;;15.40;100.00
21817;BME280;13247;47.504;7.382;2023-05-24T00:32:05;97475.97;;;15.84;100.00
21817;BME280;13247;47.504;7.382;2023-05-24T00:34:49;97484.44;;;15.73;100.00
21817;BME280;13247;47.504;7.382;2023-05-24T00:37:34;97491.44;;;15.20;100.00
21817;BME280;13247;47.504;7.382;2023-05-24T00:40:20;97474.22;;;15.49;100.00
21817;BME280;13247;47.504;7.382;2023-05-24T00:43:05;97473.50;;;15.45;100.00
21817;BME280;13247;47.504;7.382;2023-05-24T00:48:55;97475.94;;;15.50;100.00
21817;BME280;13247;47.504;7.382;2023-05-24T00:51:40;97477.06;;;15.26;100.00
21817;BME280;13247;47.504;7.382;2023-05-24T00:54:25;97477.25;;;15.40;100.00
21817;BME280;13247;47.504;7.382;2023-05-24T00:57:10;97478.16;;;14.84;100.00
21817;BME280;13247;47.504;7.382;2023-05-24T00:59:58;97469.00;;;14.73;100.00
21817;BME280;13247;47.504;7.382;2023-05-24T01:02:43;97482.19;;;14.73;100.00
21817;BME280;13247;47.504;7.382;2023-05-24T01:05:30;97481.63;;;14.85;100.00
21817;BME280;13247;47.504;7.382;2023-05-24T01:08:32;97478.16;;;15.03;100.00
21817;BME280;13247;47.504;7.382;2023-05-24T01:15:03;97482.41;;;14.68;100.00
21817;BME280;13247;47.504;7.382;2023-05-24T01:18:10;97468.59;;;15.01;100.00
21817;BME280;13247;47.504;7.382;2023-05-24T01:27:03;97475.81;;;15.16;100.00
21817;BME280;13247;47.504;7.382;2023-05-24T01:29:51;97476.81;;;14.94;100.00
21817;BME280;13247;47.504;7.382;2023-05-24T01:32:37;97478.38;;;14.99;100.00
21817;BME280;13247;47.504;7.382;2023-05-24T01:35:22;97465.78;;;14.85;100.00
21817;BME280;13247;47.504;7.382;2023-05-24T01:38:07;97473.56;;;14.69;100.00
21817;BME280;13247;47.504;7.382;2023-05-24T01:41:09;97478.78;;;14.89;100.00
21817;BME280;13247;47.504;7.382;2023-05-24T01:50:17;97472.88;;;15.03;100.00
21817;BME280;13247;47.504;7.382;2023-05-24T01:53:07;97480.34;;;15.12;100.00
21817;BME280;13247;47.504;7.382;2023-05-24T01:55:56;97484.41;;;14.63;100.00
21817;BME280;13247;47.504;7.382;2023-05-24T01:58:44;97477.72;;;14.93;100.00
21817;BME280;13247;47.504;7.382;2023-05-24T02:01:30;97473.44;;;14.91;100.00
21817;BME280;13247;47.504;7.382;2023-05-24T02:04:16;97479.78;;;14.28;100.00
21817;BME280;13247;47.504;7.382;2023-05-24T02:07:01;97482.47;;;14.67;100.00
21817;BME280;13247;47.504;7.382;2023-05-24T02:09:45;97472.41;;;14.36;100.00
21817;BME280;13247;47.504;7.382;2023-05-24T02:12:30;97468.28;;;14.69;100.00
21817;BME280;13247;47.504;7.382;2023-05-24T02:15:15;97462.63;;;14.58;100.00
21817;BME280;13247;47.504;7.382;2023-05-24T02:17:59;97464.34;;;14.59;100.00
21817;BME280;13247;47.504;7.382;2023-05-24T02:20:44;97468.22;;;14.71;100.00
21817;BME280;13247;47.504;7.382;2023-05-24T02:23:30;97472.13;;;14.62;100.00
21817;BME280;13247;47.504;7.382;2023-05-24T02:26:15;97471.22;;;15.01;100.00
21817;BME280;13247;47.504;7.382;2023-05-24T02:29:02;97459.22;;;14.93;100.00
21817;BME280;13247;47.504;7.382;2023-05-24T02:31:47;97467.28;;;14.33;100.00
21817;BME280;13247;47.504;7.382;2023-05-24T02:34:35;97461.47;;;14.25;100.00
21817;BME280;13247;47.504;7.382;2023-05-24T02:37:20;97461.75;;;14.39;100.00
21817;BME280;13247;47.504;7.382;2023-05-24T02:40:05;97446.59;;;14.63;100.00
21817;BME280;13247;47.504;7.382;2023-05-24T02:42:50;97461.47;;;14.45;100.00
21817;BME280;13247;47.504;7.382;2023-05-24T02:45:35;97452.22;;;14.55;100.00
21817;BME280;13247;47.504;7.382;2023-05-24T02:48:20;97449.31;;;14.61;100.00
21817;BME280;13247;47.504;7.382;2023-05-24T02:51:05;97444.25;;;14.75;100.00
21817;BME280;13247;47.504;7.382;2023-05-24T02:53:49;97448.03;;;14.31;100.00
21817;BME280;13247;47.504;7.382;2023-05-24T02:56:35;97439.88;;;14.56;100.00
21817;BME280;13247;47.504;7.382;2023-05-24T02:59:21;97440.22;;;14.28;100.00
21817;BME280;13247;47.504;7.382;2023-05-24T03:02:06;97430.97;;;14.58;100.00
21817;BME280;13247;47.504;7.382;2023-05-24T03:04:51;97432.66;;;14.21;100.00
21817;BME280;13247;47.504;7.382;2023-05-24T03:07:35;97433.25;;;14.07;100.00
21817;BME280;13247;47.504;7.382;2023-05-24T03:10:20;97427.66;;;14.35;100.00
21817;BME280;13247;47.504;7.382;2023-05-24T03:13:04;97427.81;;;14.32;100.00
21817;BME280;13247;47.504;7.382;2023-05-24T03:15:49;97422.97;;;14.60;100.00
21817;BME280;13247;47.504;7.382;2023-05-24T03:18:34;97424.13;;;14.54;100.00
21817;BME280;13247;47.504;7.382;2023-05-24T03:21:19;97412.84;;;14.51;100.00
21817;BME280;13247;47.504;7.382;2023-05-24T03:24:05;97420.97;;;14.26;100.00
21817;BME280;13247;47.504;7.382;2023-05-24T03:26:50;97430.38;;;14.33;100.00
21817;BME280;13247;47.504;7.382;2023-05-24T03:29:34;97420.41;;;13.99;100.00
21817;BME280;13247;47.504;7.382;2023-05-24T03:32:19;97424.47;;;14.27;100.00
21817;BME280;13247;47.504;7.382;2023-05-24T03:35:04;97421.66;;;13.91;100.00
21817;BME280;13247;47.504;7.382;2023-05-24T03:37:49;97429.53;;;13.71;100.00
21817;BME280;13247;47.504;7.382;2023-05-24T03:40:34;97425.00;;;13.94;100.00
21817;BME280;13247;47.504;7.382;2023-05-24T03:43:20;97431.56;;;14.06;100.00
21817;BME280;13247;47.504;7.382;2023-05-24T03:46:05;97440.38;;;14.05;100.00
21817;BME280;13247;47.504;7.382;2023-05-24T03:48:49;97439.78;;;13.78;100.00
21817;BME280;13247;47.504;7.382;2023-05-24T03:51:34;97445.78;;;13.82;100.00
21817;BME280;13247;47.504;7.382;2023-05-24T03:54:19;97441.56;;;13.78;100.00
21817;BME280;13247;47.504;7.382;2023-05-24T03:57:04;97445.25;;;14.34;100.00
21817;BME280;13247;47.504;7.382;2023-05-24T03:59:49;97447.50;;;14.23;100.00
21817;BME280;13247;47.504;7.382;2023-05-24T04:02:34;97441.75;;;14.13;100.00
21817;BME280;13247;47.504;7.382;2023-05-24T04:05:21;97445.47;;;13.89;100.00
21817;BME280;13247;47.504;7.382;2023-05-24T04:08:10;97444.00;;;14.23;100.00
21817;BME280;13247;47.504;7.382;2023-05-24T04:10:55;97445.53;;;14.08;100.00
21817;BME280;13247;47.504;7.382;2023-05-24T04:13:40;97447.22;;;14.09;100.00
21817;BME280;13247;47.504;7.382;2023-05-24T04:16:26;97451.19;;;14.19;100.00
21817;BME280;13247;47.504;7.382;2023-05-24T04:19:11;97449.72;;;13.72;100.00
21817;BME280;13247;47.504;7.382;2023-05-24T04:21:56;97453.81;;;13.79;100.00
21817;BME280;13247;47.504;7.382;2023-05-24T04:24:41;97458.03;;;14.03;100.00
21817;BME280;13247;47.504;7.382;2023-05-24T04:27:25;97467.59;;;13.85;100.00
21817;BME280;13247;47.504;7.382;2023-05-24T04:30:11;97464.22;;;13.82;100.00
21817;BME280;13247;47.504;7.382;2023-05-24T04:32:57;97463.94;;;13.68;100.00
21817;BME280;13247;47.504;7.382;2023-05-24T04:35:42;97472.06;;;13.83;100.00
21817;BME280;13247;47.504;7.382;2023-05-24T04:38:28;97471.69;;;13.92;100.00
21817;BME280;13247;47.504;7.382;2023-05-24T04:41:13;97466.00;;;13.39;100.00
21817;BME280;13247;47.504;7.382;2023-05-24T04:43:58;97471.53;;;13.75;100.00
21817;BME280;13247;47.504;7.382;2023-05-24T04:46:45;97474.50;;;13.68;100.00
21817;BME280;13247;47.504;7.382;2023-05-24T04:49:30;97476.34;;;13.86;100.00
21817;BME280;13247;47.504;7.382;2023-05-24T04:52:15;97481.69;;;13.64;100.00
21817;BME280;13247;47.504;7.382;2023-05-24T04:55:01;97483.88;;;13.75;100.00
21817;BME280;13247;47.504;7.382;2023-05-24T04:57:46;97482.66;;;13.62;100.00
21817;BME280;13247;47.504;7.382;2023-05-24T05:00:30;97487.44;;;13.52;100.00
21817;BME280;13247;47.504;7.382;2023-05-24T05:03:16;97486.63;;;13.50;100.00
21817;BME280;13247;47.504;7.382;2023-05-24T05:06:00;97488.91;;;13.59;100.00
21817;BME280;13247;47.504;7.382;2023-05-24T05:08:45;97489.59;;;13.43;100.00
21817;BME280;13247;47.504;7.382;2023-05-24T05:11:31;97497.94;;;13.54;100.00
21817;BME280;13247;47.504;7.382;2023-05-24T05:14:15;97499.81;;;13.72;100.00
21817;BME280;13247;47.504;7.382;2023-05-24T05:17:00;97492.44;;;13.80;100.00
21817;BME280;13247;47.504;7.382;2023-05-24T05:19:45;97491.09;;;13.70;100.00
21817;BME280;13247;47.504;7.382;2023-05-24T05:22:29;97491.63;;;13.78;100.00
21817;BME280;13247;47.504;7.382;2023-05-24T05:25:14;97494.00;;;13.64;100.00
21817;BME280;13247;47.504;7.382;2023-05-24T05:27:59;97479.59;;;13.51;100.00
21817;BME280;13247;47.504;7.382;2023-05-24T05:30:44;97488.28;;;13.31;100.00
21817;BME280;13247;47.504;7.382;2023-05-24T05:33:32;97482.59;;;13.83;100.00
21817;BME280;13247;47.504;7.382;2023-05-24T05:36:17;97485.34;;;14.02;100.00
21817;BME280;13247;47.504;7.382;2023-05-24T05:39:02;97483.31;;;13.67;100.00
21817;BME280;13247;47.504;7.382;2023-05-24T05:41:46;97484.44;;;13.39;100.00
21817;BME280;13247;47.504;7.382;2023-05-24T05:44:31;97488.66;;;13.44;100.00
21817;BME280;13247;47.504;7.382;2023-05-24T05:47:15;97487.84;;;13.63;100.00
21817;BME280;13247;47.504;7.382;2023-05-24T05:50:00;97485.56;;;13.76;100.00
21817;BME280;13247;47.504;7.382;2023-05-24T05:52:44;97489.31;;;13.70;100.00
21817;BME280;13247;47.504;7.382;2023-05-24T05:55:29;97489.63;;;13.41;100.00
21817;BME280;13247;47.504;7.382;2023-05-24T05:58:14;97490.50;;;13.63;100.00
21817;BME280;13247;47.504;7.382;2023-05-24T06:00:59;97489.69;;;13.39;100.00
21817;BME280;13247;47.504;7.382;2023-05-24T06:03:44;97492.81;;;13.27;100.00
21817;BME280;13247;47.504;7.382;2023-05-24T06:06:29;97485.81;;;13.26;100.00
21817;BME280;13247;47.504;7.382;2023-05-24T06:09:14;97494.16;;;13.16;100.00
21817;BME280;13247;47.504;7.382;2023-05-24T06:11:59;97500.91;;;13.45;100.00
21817;BME280;13247;47.504;7.382;2023-05-24T06:14:44;97493.25;;;13.17;100.00
21817;BME280;13247;47.504;7.382;2023-05-24T06:17:31;97490.88;;;13.32;100.00
21817;BME280;13247;47.504;7.382;2023-05-24T06:20:16;97495.47;;;13.27;100.00
21817;BME280;13247;47.504;7.382;2023-05-24T06:23:00;97499.38;;;13.17;100.00
21817;BME280;13247;47.504;7.382;2023-05-24T06:25:45;97491.19;;;13.47;100.00
21817;BME280;13247;47.504;7.382;2023-05-24T06:28:30;97497.84;;;13.33;100.00
21817;BME280;13247;47.504;7.382;2023-05-24T06:31:15;97500.31;;;13.38;100.00
21817;BME280;13247;47.504;7.382;2023-05-24T06:34:00;97501.38;;;13.54;100.00
21817;BME280;13247;47.504;7.382;2023-05-24T06:36:45;97500.75;;;13.49;100.00
21817;BME280;13247;47.504;7.382;2023-05-24T06:39:32;97506.97;;;13.47;100.00
21817;BME280;13247;47.504;7.382;2023-05-24T06:42:16;97513.03;;;13.27;100.00
21817;BME280;13247;47.504;7.382;2023-05-24T06:45:01;97508.44;;;13.32;100.00
21817;BME280;13247;47.504;7.382;2023-05-24T06:47:46;97510.22;;;13.31;100.00
21817;BME280;13247;47.504;7.382;2023-05-24T06:50:30;97509.97;;;13.37;100.00
21817;BME280;13247;47.504;7.382;2023-05-24T06:53:15;97517.00;;;13.37;100.00
21817;BME280;13247;47.504;7.382;2023-05-24T06:55:59;97524.66;;;13.21;100.00
21817;BME280;13247;47.504;7.382;2023-05-24T06:58:44;97524.13;;;13.13;100.00
21817;BME280;13247;47.504;7.382;2023-05-24T07:01:29;97528.72;;;13.30;100.00
21817;BME280;13247;47.504;7.382;2023-05-24T07:04:13;97528.34;;;13.39;100.00
21817;BME280;13247;47.504;7.382;2023-05-24T07:06:58;97532.28;;;13.51;100.00
21817;BME280;13247;47.504;7.382;2023-05-24T07:09:42;97531.75;;;13.64;100.00
21817;BME280;13247;47.504;7.382;2023-05-24T07:12:27;97532.56;;;13.65;100.00
21817;BME280;13247;47.504;7.382;2023-05-24T07:15:12;97533.56;;;13.41;100.00
21817;BME280;13247;47.504;7.382;2023-05-24T07:17:56;97538.41;;;13.51;100.00
21817;BME280;13247;47.504;7.382;2023-05-24T07:20:41;97539.19;;;13.31;100.00
21817;BME280;13247;47.504;7.382;2023-05-24T07:23:26;97540.19;;;13.51;100.00
21817;BME280;13247;47.504;7.382;2023-05-24T07:26:10;97536.28;;;13.16;100.00
21817;BME280;13247;47.504;7.382;2023-05-24T07:28:56;97548.13;;;13.27;100.00
21817;BME280;13247;47.504;7.382;2023-05-24T07:31:40;97548.88;;;13.31;100.00
21817;BME280;13247;47.504;7.382;2023-05-24T07:34:26;97545.75;;;12.97;100.00
21817;BME280;13247;47.504;7.382;2023-05-24T07:37:13;97547.50;;;13.21;100.00
21817;BME280;13247;47.504;7.382;2023-05-24T07:39:58;97551.09;;;12.95;100.00
21817;BME280;13247;47.504;7.382;2023-05-24T07:42:42;97554.44;;;12.99;100.00
21817;BME280;13247;47.504;7.382;2023-05-24T07:45:26;97555.09;;;13.07;100.00
21817;BME280;13247;47.504;7.382;2023-05-24T07:48:11;97553.75;;;13.18;100.00
21817;BME280;13247;47.504;7.382;2023-05-24T07:50:56;97562.84;;;13.10;100.00
21817;BME280;13247;47.504;7.382;2023-05-24T07:53:40;97547.19;;;13.28;100.00
21817;BME280;13247;47.504;7.382;2023-05-24T07:56:25;97551.41;;;13.56;100.00
21817;BME280;13247;47.504;7.382;2023-05-24T07:59:10;97542.66;;;13.77;100.00
21817;BME280;13247;47.504;7.382;2023-05-24T08:01:54;97548.34;;;13.45;100.00
21817;BME280;13247;47.504;7.382;2023-05-24T08:04:45;97544.53;;;13.52;100.00
21817;BME280;13247;47.504;7.382;2023-05-24T08:07:32;97543.66;;;13.29;100.00
21817;BME280;13247;47.504;7.382;2023-05-24T08:10:18;97538.22;;;13.34;100.00
21817;BME280;13247;47.504;7.382;2023-05-24T08:13:03;97539.78;;;13.16;100.00
21817;BME280;13247;47.504;7.382;2023-05-24T08:15:49;97537.72;;;13.46;100.00
21817;BME280;13247;47.504;7.382;2023-05-24T08:18:33;97537.66;;;13.69;100.00
21817;BME280;13247;47.504;7.382;2023-05-24T08:21:18;97542.72;;;13.30;100.00
21817;BME280;13247;47.504;7.382;2023-05-24T08:24:03;97547.19;;;13.28;100.00
21817;BME280;13247;47.504;7.382;2023-05-24T08:26:47;97540.44;;;13.66;100.00
21817;BME280;13247;47.504;7.382;2023-05-24T08:29:35;97544.78;;;13.67;100.00
21817;BME280;13247;47.504;7.382;2023-05-24T08:32:20;97549.69;;;13.76;100.00
21817;BME280;13247;47.504;7.382;2023-05-24T08:35:05;97547.66;;;13.39;100.00
21817;BME280;13247;47.504;7.382;2023-05-24T08:37:50;97549.41;;;13.17;100.00
21817;BME280;13247;47.504;7.382;2023-05-24T08:40:35;97546.69;;;13.64;100.00
21817;BME280;13247;47.504;7.382;2023-05-24T08:43:21;97549.63;;;13.34;100.00
21817;BME280;13247;47.504;7.382;2023-05-24T08:46:09;97547.00;;;13.34;100.00
21817;BME280;13247;47.504;7.382;2023-05-24T08:48:55;97562.41;;;12.97;100.00
21817;BME280;13247;47.504;7.382;2023-05-24T08:51:43;97564.00;;;13.26;100.00
21817;BME280;13247;47.504;7.382;2023-05-24T08:54:29;97564.25;;;13.42;100.00
21817;BME280;13247;47.504;7.382;2023-05-24T08:57:14;97555.97;;;13.29;100.00
21817;BME280;13247;47.504;7.382;2023-05-24T09:00:00;97571.84;;;13.27;100.00
21817;BME280;13247;47.504;7.382;2023-05-24T09:02:45;97578.78;;;13.07;100.00
21817;BME280;13247;47.504;7.382;2023-05-24T09:05:32;97581.00;;;13.17;100.00
21817;BME280;13247;47.504;7.382;2023-05-24T09:08:16;97572.72;;;13.05;100.00
21817;BME280;13247;47.504;7.382;2023-05-24T09:11:05;97564.72;;;13.29;100.00
21817;BME280;13247;47.504;7.382;2023-05-24T09:13:55;97573.88;;;13.43;100.00
21817;BME280;13247;47.504;7.382;2023-05-24T09:16:41;97571.31;;;13.63;100.00
21817;BME280;13247;47.504;7.382;2023-05-24T09:19:27;97576.66;;;13.83;100.00
21817;BME280;13247;47.504;7.382;2023-05-24T09:22:13;97575.00;;;14.02;100.00
21817;BME280;13247;47.504;7.382;2023-05-24T09:25:00;97574.69;;;13.88;100.00
21817;BME280;13247;47.504;7.382;2023-05-24T09:27:52;97578.44;;;13.82;100.00
21817;BME280;13247;47.504;7.382;2023-05-24T09:30:37;97577.06;;;13.94;100.00
21817;BME280;13247;47.504;7.382;2023-05-24T09:33:22;97576.06;;;14.40;100.00
21817;BME280;13247;47.504;7.382;2023-05-24T09:36:07;97582.31;;;14.37;100.00
21817;BME280;13247;47.504;7.382;2023-05-24T09:39:05;97578.59;;;14.21;100.00
21817;BME280;13247;47.504;7.382;2023-05-24T09:41:53;97577.75;;;14.41;100.00
21817;BME280;13247;47.504;7.382;2023-05-24T09:44:40;97575.22;;;14.17;100.00
21817;BME280;13247;47.504;7.382;2023-05-24T09:47:30;97578.25;;;14.08;100.00
21817;BME280;13247;47.504;7.382;2023-05-24T09:50:15;97579.38;;;14.23;100.00
21817;BME280;13247;47.504;7.382;2023-05-24T09:53:03;97579.41;;;14.01;100.00
21817;BME280;13247;47.504;7.382;2023-05-24T09:55:48;97580.91;;;13.87;100.00
21817;BME280;13247;47.504;7.382;2023-05-24T09:58:34;97584.56;;;13.83;100.00
21817;BME280;13247;47.504;7.382;2023-05-24T10:01:22;97584.09;;;14.15;100.00
21817;BME280;13247;47.504;7.382;2023-05-24T10:04:08;97595.31;;;14.42;100.00
21817;BME280;13247;47.504;7.382;2023-05-24T10:06:53;97597.63;;;14.29;100.00
21817;BME280;13247;47.504;7.382;2023-05-24T10:09:39;97593.09;;;14.53;100.00
21817;BME280;13247;47.504;7.382;2023-05-24T10:12:25;97594.94;;;14.51;100.00
21817;BME280;13247;47.504;7.382;2023-05-24T10:15:13;97587.75;;;14.54;100.00
21817;BME280;13247;47.504;7.382;2023-05-24T10:18:02;97589.44;;;14.55;100.00
21817;BME280;13247;47.504;7.382;2023-05-24T10:20:54;97597.97;;;14.42;100.00
21817;BME280;13247;47.504;7.382;2023-05-24T10:23:43;97597.44;;;14.34;100.00
21817;BME280;13247;47.504;7.382;2023-05-24T10:26:31;97599.88;;;14.16;100.00
21817;BME280;13247;47.504;7.382;2023-05-24T10:32:37;97598.50;;;14.50;100.00
21817;BME280;13247;47.504;7.382;2023-05-24T10:35:22;97604.63;;;14.50;100.00
21817;BME280;13247;47.504;7.382;2023-05-24T10:38:08;97607.53;;;14.23;100.00
21817;BME280;13247;47.504;7.382;2023-05-24T10:40:54;97597.47;;;14.32;100.00
21817;BME280;13247;47.504;7.382;2023-05-24T10:43:39;97602.72;;;14.34;100.00
21817;BME280;13247;47.504;7.382;2023-05-24T10:46:29;97595.00;;;14.49;100.00
21817;BME280;13247;47.504;7.382;2023-05-24T10:49:18;97600.72;;;14.39;100.00
21817;BME280;13247;47.504;7.382;2023-05-24T10:52:09;97604.56;;;14.52;100.00
21817;BME280;13247;47.504;7.382;2023-05-24T10:55:04;97591.63;;;14.66;100.00
21817;BME280;13247;47.504;7.382;2023-05-24T10:57:49;97604.09;;;14.62;100.00
21817;BME280;13247;47.504;7.382;2023-05-24T11:00:41;97604.28;;;14.38;100.00
21817;BME280;13247;47.504;7.382;2023-05-24T11:03:34;97598.22;;;14.56;100.00
21817;BME280;13247;47.504;7.382;2023-05-24T11:06:19;97593.88;;;14.75;100.00
21817;BME280;13247;47.504;7.382;2023-05-24T11:09:24;97604.25;;;13.96;100.00
21817;BME280;13247;47.504;7.382;2023-05-24T11:12:14;97603.25;;;14.20;100.00
21817;BME280;13247;47.504;7.382;2023-05-24T11:15:01;97597.06;;;14.21;100.00
21817;BME280;13247;47.504;7.382;2023-05-24T11:20:50;97594.97;;;14.29;100.00
21817;BME280;13247;47.504;7.382;2023-05-24T11:23:36;97590.69;;;14.47;100.00
21817;BME280;13247;47.504;7.382;2023-05-24T11:26:23;97585.03;;;14.76;100.00
21817;BME280;13247;47.504;7.382;2023-05-24T11:29:15;97583.63;;;14.47;100.00
21817;BME280;13247;47.504;7.382;2023-05-24T11:32:01;97580.41;;;14.81;100.00
21817;BME280;13247;47.504;7.382;2023-05-24T11:34:48;97589.59;;;15.11;100.00
21817;BME280;13247;47.504;7.382;2023-05-24T11:37:33;97580.59;;;15.15;100.00
21817;BME280;13247;47.504;7.382;2023-05-24T11:40:21;97584.81;;;15.58;100.00
21817;BME280;13247;47.504;7.382;2023-05-24T11:43:08;97578.00;;;15.52;100.00
21817;BME280;13247;47.504;7.382;2023-05-24T11:45:53;97575.63;;;15.28;100.00
21817;BME280;13247;47.504;7.382;2023-05-24T11:48:39;97574.94;;;15.61;100.00
21817;BME280;13247;47.504;7.382;2023-05-24T11:51:31;97573.22;;;15.79;100.00
21817;BME280;13247;47.504;7.382;2023-05-24T11:54:18;97566.81;;;15.47;100.00
21817;BME280;13247;47.504;7.382;2023-05-24T11:57:04;97562.91;;;15.54;100.00
21817;BME280;13247;47.504;7.382;2023-05-24T11:59:49;97562.34;;;16.02;100.00
21817;BME280;13247;47.504;7.382;2023-05-24T12:02:39;97561.06;;;15.75;100.00
21817;BME280;13247;47.504;7.382;2023-05-24T12:05:27;97562.91;;;15.36;100.00
21817;BME280;13247;47.504;7.382;2023-05-24T12:08:15;97566.91;;;15.82;100.00
21817;BME280;13247;47.504;7.382;2023-05-24T12:11:00;97558.38;;;15.58;100.00
21817;BME280;13247;47.504;7.382;2023-05-24T12:13:48;97562.69;;;15.78;100.00
21817;BME280;13247;47.504;7.382;2023-05-24T12:16:34;97562.13;;;16.07;100.00
21817;BME280;13247;47.504;7.382;2023-05-24T12:19:19;97564.44;;;15.96;100.00
21817;BME280;13247;47.504;7.382;2023-05-24T12:22:05;97570.69;;;15.76;100.00
21817;BME280;13247;47.504;7.382;2023-05-24T12:24:50;97556.44;;;16.14;100.00
21817;BME280;13247;47.504;7.382;2023-05-24T12:27:35;97557.47;;;16.29;100.00
21817;BME280;13247;47.504;7.382;2023-05-24T12:30:24;97553.47;;;16.03;100.00
21817;BME280;13247;47.504;7.382;2023-05-24T12:33:10;97557.06;;;16.02;100.00
21817;BME280;13247;47.504;7.382;2023-05-24T12:35:55;97549.84;;;16.40;100.00
21817;BME280;13247;47.504;7.382;2023-05-24T12:38:40;97546.19;;;16.42;100.00
21817;BME280;13247;47.504;7.382;2023-05-24T12:41:24;97541.50;;;16.47;100.00
21817;BME280;13247;47.504;7.382;2023-05-24T12:44:10;97528.91;;;16.70;100.00
21817;BME280;13247;47.504;7.382;2023-05-24T12:46:56;97526.81;;;16.92;100.00
21817;BME280;13247;47.504;7.382;2023-05-24T12:49:41;97522.72;;;17.19;100.00
21817;BME280;13247;47.504;7.382;2023-05-24T12:52:26;97523.94;;;16.64;100.00
21817;BME280;13247;47.504;7.382;2023-05-24T12:55:14;97526.09;;;16.73;100.00
21817;BME280;13247;47.504;7.382;2023-05-24T12:57:59;97517.66;;;17.30;100.00
21817;BME280;13247;47.504;7.382;2023-05-24T13:00:46;97513.72;;;17.21;100.00
21817;BME280;13247;47.504;7.382;2023-05-24T13:03:33;97510.59;;;17.46;100.00
21817;BME280;13247;47.504;7.382;2023-05-24T13:06:18;97505.75;;;17.21;100.00
21817;BME280;13247;47.504;7.382;2023-05-24T13:09:04;97507.94;;;17.77;100.00
21817;BME280;13247;47.504;7.382;2023-05-24T13:11:50;97512.72;;;17.71;100.00
21817;BME280;13247;47.504;7.382;2023-05-24T13:14:36;97500.25;;;18.02;100.00
21817;BME280;13247;47.504;7.382;2023-05-24T13:17:20;97501.28;;;18.30;100.00
21817;BME280;13247;47.504;7.382;2023-05-24T13:20:06;97495.88;;;18.01;100.00
21817;BME280;13247;47.504;7.382;2023-05-24T13:22:51;97493.94;;;18.05;98.87
21817;BME280;13247;47.504;7.382;2023-05-24T13:25:36;97494.56;;;18.24;97.59
21817;BME280;13247;47.504;7.382;2023-05-24T13:28:21;97488.34;;;18.10;99.38
21817;BME280;13247;47.504;7.382;2023-05-24T13:31:05;97487.88;;;18.03;99.67
21817;BME280;13247;47.504;7.382;2023-05-24T13:33:50;97478.16;;;18.32;98.62
21817;BME280;13247;47.504;7.382;2023-05-24T13:36:35;97475.38;;;18.63;94.50
21817;BME280;13247;47.504;7.382;2023-05-24T13:39:21;97468.78;;;18.98;89.24
21817;BME280;13247;47.504;7.382;2023-05-24T13:42:07;97460.19;;;19.07;86.33
21817;BME280;13247;47.504;7.382;2023-05-24T13:44:52;97450.22;;;19.66;81.37
21817;BME280;13247;47.504;7.382;2023-05-24T13:47:38;97453.19;;;19.61;74.24
21817;BME280;13247;47.504;7.382;2023-05-24T13:50:23;97449.66;;;19.61;82.86
21817;BME280;13247;47.504;7.382;2023-05-24T13:53:10;97454.03;;;18.93;87.33
21817;BME280;13247;47.504;7.382;2023-05-24T13:55:55;97449.38;;;19.65;84.78
21817;BME280;13247;47.504;7.382;2023-05-24T13:58:40;97444.75;;;19.54;78.38
21817;BME280;13247;47.504;7.382;2023-05-24T14:01:25;97442.81;;;19.30;79.12
21817;BME280;13247;47.504;7.382;2023-05-24T14:04:10;97443.50;;;19.05;90.89
21817;BME280;13247;47.504;7.382;2023-05-24T14:06:54;97440.19;;;18.88;91.61
21817;BME280;13247;47.504;7.382;2023-05-24T14:09:40;97443.06;;;19.39;81.24
21817;BME280;13247;47.504;7.382;2023-05-24T14:12:25;97446.69;;;19.24;86.95
21817;BME280;13247;47.504;7.382;2023-05-24T14:15:10;97443.38;;;19.21;86.38
21817;BME280;13247;47.504;7.382;2023-05-24T14:17:56;97438.91;;;19.21;89.97
21817;BME280;13247;47.504;7.382;2023-05-24T14:20:41;97438.22;;;18.77;93.52
21817;BME280;13247;47.504;7.382;2023-05-24T14:23:25;97449.31;;;18.12;95.98
21817;BME280;13247;47.504;7.382;2023-05-24T14:26:11;97440.91;;;19.32;87.62
21817;BME280;13247;47.504;7.382;2023-05-24T14:28:55;97437.91;;;19.77;80.75
21817;BME280;13247;47.504;7.382;2023-05-24T14:31:40;97433.31;;;20.06;75.50
21817;BME280;13247;47.504;7.382;2023-05-24T14:34:27;97440.81;;;19.60;79.75
21817;BME280;13247;47.504;7.382;2023-05-24T14:37:12;97428.50;;;19.59;78.33
21817;BME280;13247;47.504;7.382;2023-05-24T14:39:56;97435.75;;;19.29;82.61
21817;BME280;13247;47.504;7.382;2023-05-24T14:42:41;97435.38;;;19.35;91.41
21817;BME280;13247;47.504;7.382;2023-05-24T14:45:25;97433.09;;;19.29;84.67
21817;BME280;13247;47.504;7.382;2023-05-24T14:48:10;97425.31;;;19.67;82.02
21817;BME280;13247;47.504;7.382;2023-05-24T14:50:55;97423.53;;;20.19;78.78
21817;BME280;13247;47.504;7.382;2023-05-24T14:53:40;97417.28;;;20.20;80.29